Time;durP1;ratioP1;P1;durP2;ratioP2;P2;SDS_P1;SDS_P2;PMS_P1;PMS_P2;Temp;Humidity;BMP_temperature;BMP_pressure;BME280_temperature;BME280_humidity;BME280_pressure;Samples;Min_cycle;Max_cycle;Signal;HPM_P1;HPM_P2
2022/03/11 00:00:00;;;;;;;18.13;8.80;;;-1.30;1.00;;;;;;5036248;28;20271;-89
2022/03/11 00:02:28;;;;;;;18.93;8.03;;;-1.20;1.00;;;;;;5036492;28;20263;-88
2022/03/11 00:04:55;;;;;;;20.10;7.67;;;-1.30;1.00;;;;;;5036312;28;20243;-88
2022/03/11 00:07:22;;;;;;;15.33;8.23;;;-1.30;1.00;;;;;;5035775;28;20240;-90
2022/03/11 00:09:50;;;;;;;17.07;8.03;;;-1.30;1.00;;;;;;5035674;28;20201;-87
2022/03/11 00:12:17;;;;;;;17.90;9.03;;;-1.30;1.00;;;;;;5035973;28;20189;-90
2022/03/11 00:14:44;;;;;;;21.83;8.47;;;-1.30;1.00;;;;;;5036250;28;20220;-90
2022/03/11 00:17:11;;;;;;;17.27;8.23;;;-1.30;1.00;;;;;;5035847;28;20197;-88
2022/03/11 00:19:39;;;;;;;19.43;7.90;;;-1.30;1.00;;;;;;5035902;28;20189;-89
2022/03/11 00:22:06;;;;;;;19.87;8.90;;;-1.30;1.00;;;;;;5035417;28;20275;-88
2022/03/11 00:24:33;;;;;;;15.23;7.33;;;-1.30;1.00;;;;;;5035151;28;20193;-88
2022/03/11 00:27:00;;;;;;;14.70;7.23;;;-1.30;1.00;;;;;;5035078;28;20255;-88
2022/03/11 00:29:28;;;;;;;23.73;8.87;;;-1.40;1.00;;;;;;5035063;28;20193;-89
2022/03/11 00:31:55;;;;;;;12.10;5.53;;;-1.40;1.00;;;;;;5034705;28;20682;-88
2022/03/11 00:34:22;;;;;;;14.80;6.57;;;-1.40;1.00;;;;;;5034766;28;20197;-88
2022/03/11 00:36:50;;;;;;;19.47;8.07;;;-1.40;1.00;;;;;;5034945;28;20621;-88
2022/03/11 00:39:17;;;;;;;17.20;8.33;;;-1.40;1.00;;;;;;5035234;28;20197;-87
2022/03/11 00:41:44;;;;;;;18.50;8.03;;;-1.40;1.00;;;;;;5035097;28;20217;-88
2022/03/11 00:44:12;;;;;;;15.93;7.47;;;-1.40;1.00;;;;;;5034838;28;20189;-88
2022/03/11 00:46:39;;;;;;;16.80;6.33;;;-1.40;1.00;;;;;;5034711;28;20436;-89
2022/03/11 00:49:06;;;;;;;18.47;7.33;;;-1.40;1.00;;;;;;5040497;28;20250;-89
2022/03/11 00:51:33;;;;;;;18.60;9.43;;;-1.40;1.00;;;;;;5054296;28;20653;-88
2022/03/11 00:54:02;;;;;;;17.07;8.67;;;-1.40;1.00;;;;;;5054631;28;20251;-89
2022/03/11 00:56:30;;;;;;;14.50;7.17;;;-1.40;1.00;;;;;;5054262;28;20242;-89
2022/03/11 00:58:57;;;;;;;18.10;8.40;;;-1.40;1.00;;;;;;5054157;28;20200;-89
2022/03/11 01:01:24;;;;;;;17.83;8.13;;;-1.40;1.00;;;;;;5054409;28;20253;-88
2022/03/11 01:03:51;;;;;;;16.33;7.80;;;-1.40;1.00;;;;;;5053113;28;20197;-88
2022/03/11 01:06:19;;;;;;;17.03;8.43;;;-1.40;1.00;;;;;;5054717;28;20200;-88
2022/03/11 01:08:45;;;;;;;17.00;8.03;;;-1.40;1.00;;;;;;5054270;28;20281;-88
2022/03/11 01:11:14;;;;;;;18.23;8.60;;;-1.40;1.00;;;;;;5054140;28;20197;-90
2022/03/11 01:13:41;;;;;;;15.37;8.10;;;-1.40;1.00;;;;;;5054538;28;20192;-89
2022/03/11 01:16:08;;;;;;;15.67;8.37;;;-1.40;1.00;;;;;;5053923;28;20197;-89
2022/03/11 01:18:35;;;;;;;12.53;7.13;;;-1.50;1.00;;;;;;5052720;28;20715;-89
2022/03/11 01:21:03;;;;;;;16.10;8.10;;;-1.50;1.00;;;;;;5033850;28;20228;-89
2022/03/11 01:23:30;;;;;;;17.03;7.47;;;-1.50;1.00;;;;;;5034678;28;20197;-90
2022/03/11 01:25:57;;;;;;;13.00;6.53;;;-1.50;1.00;;;;;;5034636;28;20231;-88
2022/03/11 01:28:26;;;;;;;17.67;8.60;;;-1.50;1.00;;;;;;5034269;28;20662;-89
2022/03/11 01:30:53;;;;;;;18.10;8.03;;;-1.50;1.00;;;;;;5052627;28;20254;-89
2022/03/11 01:33:20;;;;;;;17.30;7.47;;;-1.50;1.00;;;;;;5054586;28;20250;-88
2022/03/11 01:35:48;;;;;;;16.00;7.73;;;-1.50;1.00;;;;;;5054402;28;20196;-89
2022/03/11 01:38:15;;;;;;;12.37;6.77;;;-1.50;1.00;;;;;;5053780;28;20642;-89
2022/03/11 01:40:42;;;;;;;15.37;7.33;;;-1.50;1.00;;;;;;5054192;28;20216;-90
2022/03/11 01:43:19;;;;;;;15.43;7.43;;;-1.50;1.00;;;;;;5053929;28;20193;-88
2022/03/11 01:45:48;;;;;;;14.47;6.63;;;-1.50;1.00;;;;;;5055061;28;20279;-89
2022/03/11 01:48:15;;;;;;;15.33;8.10;;;-1.50;1.00;;;;;;5054340;28;20262;-89
2022/03/11 01:50:43;;;;;;;20.87;8.87;;;-1.50;1.00;;;;;;5054191;28;20203;-88
2022/03/11 01:53:12;;;;;;;17.63;8.37;;;-1.60;1.00;;;;;;5054570;28;20249;-87
2022/03/11 01:55:40;;;;;;;18.60;8.67;;;-1.60;1.00;;;;;;5054145;28;20286;-88
2022/03/11 01:58:08;;;;;;;20.33;8.23;;;-1.60;1.00;;;;;;5053932;28;20648;-89
2022/03/11 02:00:38;;;;;;;23.50;9.03;;;-1.60;1.00;;;;;;5053638;28;20208;-90
2022/03/11 02:03:07;;;;;;;16.80;8.43;;;-1.60;1.00;;;;;;5053964;28;20200;-89
2022/03/11 02:05:34;;;;;;;17.60;8.90;;;-1.70;1.00;;;;;;5054282;28;20196;-89
2022/03/11 02:08:01;;;;;;;16.93;8.03;;;-1.70;1.00;;;;;;5051991;28;20292;-89
2022/03/11 02:10:30;;;;;;;16.50;8.93;;;-1.70;1.00;;;;;;5053971;28;20205;-91
2022/03/11 02:12:57;;;;;;;18.37;7.73;;;-1.70;1.00;;;;;;5053686;28;20649;-89
2022/03/11 02:15:24;;;;;;;17.27;8.23;;;-1.70;1.00;;;;;;5053476;28;20216;-90
2022/03/11 02:17:51;;;;;;;17.73;8.63;;;-1.70;1.00;;;;;;5054114;28;20197;-90
2022/03/11 02:20:19;;;;;;;14.60;7.57;;;-1.80;1.00;;;;;;5053681;28;20274;-89
2022/03/11 02:22:50;;;;;;;20.13;8.00;;;-1.80;1.00;;;;;;5053717;28;20271;-88
2022/03/11 02:25:19;;;;;;;16.40;7.97;;;-1.80;1.00;;;;;;5054291;28;20213;-89
2022/03/11 02:27:47;;;;;;;21.23;9.87;;;-1.80;1.00;;;;;;5053549;28;20220;-89
2022/03/11 02:30:16;;;;;;;16.43;8.07;;;-1.80;1.00;;;;;;5053693;28;20196;-89
2022/03/11 02:32:43;;;;;;;15.93;7.03;;;-1.90;1.00;;;;;;5053964;28;20270;-89
2022/03/11 02:35:10;;;;;;;20.90;8.60;;;-1.90;1.00;;;;;;5053652;28;20192;-90
2022/03/11 02:37:38;;;;;;;19.33;8.30;;;-1.90;1.00;;;;;;5053797;28;20200;-88
2022/03/11 02:40:07;;;;;;;19.83;8.77;;;-1.90;1.00;;;;;;5052981;28;20246;-90
2022/03/11 02:42:35;;;;;;;15.60;7.03;;;-2.00;1.00;;;;;;5053812;28;20188;-89
2022/03/11 02:45:04;;;;;;;18.60;9.20;;;-2.00;1.00;;;;;;5053048;28;20192;-90
2022/03/11 02:47:31;;;;;;;16.90;8.13;;;-2.00;1.00;;;;;;5053544;28;20207;-89
2022/03/11 02:49:58;;;;;;;17.40;8.27;;;-2.00;1.00;;;;;;5053511;28;20192;-91
2022/03/11 02:52:25;;;;;;;22.00;9.27;;;-2.10;1.00;;;;;;5053552;28;20189;-90
2022/03/11 02:54:53;;;;;;;18.27;8.33;;;-2.10;1.00;;;;;;5052029;28;20188;-89
2022/03/11 02:57:20;;;;;;;18.43;8.07;;;-2.10;1.00;;;;;;5053955;28;20223;-89
2022/03/11 02:59:48;;;;;;;14.30;7.33;;;-2.10;1.00;;;;;;5053303;28;20196;-89
2022/03/11 03:02:15;;;;;;;17.13;8.90;;;-2.10;1.00;;;;;;5053417;28;20212;-88
2022/03/11 03:04:43;;;;;;;16.73;8.60;;;-2.10;1.00;;;;;;5053408;28;20672;-90
2022/03/11 03:07:11;;;;;;;19.60;8.20;;;-2.10;1.00;;;;;;5048453;28;20205;-90
2022/03/11 03:09:41;;;;;;;19.83;8.83;;;-2.10;1.00;;;;;;5033409;28;20552;-89
2022/03/11 03:12:10;;;;;;;17.83;8.23;;;-2.10;1.00;;;;;;5033732;28;20700;-90
2022/03/11 03:14:37;;;;;;;18.30;7.87;;;-2.20;1.00;;;;;;5033301;28;20642;-89
2022/03/11 03:17:08;;;;;;;15.83;8.17;;;-2.20;1.00;;;;;;5033235;28;20224;-89
2022/03/11 03:19:35;;;;;;;14.47;6.53;;;-2.20;1.00;;;;;;5033524;28;20193;-89
2022/03/11 03:22:03;;;;;;;21.27;7.77;;;-2.20;1.00;;;;;;5033161;28;20237;-89
2022/03/11 03:24:30;;;;;;;23.63;9.83;;;-2.20;1.00;;;;;;5033598;28;20209;-90
2022/03/11 03:26:57;;;;;;;18.87;8.17;;;-2.20;1.00;;;;;;5035537;28;20189;-90
2022/03/11 03:29:24;;;;;;;17.00;7.90;;;-2.20;1.00;;;;;;5037087;28;20251;-88
2022/03/11 03:31:57;;;;;;;19.33;8.50;;;-2.30;1.00;;;;;;5037372;28;20658;-91
2022/03/11 03:34:27;;;;;;;19.37;9.47;;;-2.30;1.00;;;;;;5037743;28;20701;-88
2022/03/11 03:36:54;;;;;;;18.67;9.37;;;-2.30;1.00;;;;;;5037204;28;20224;-90
2022/03/11 03:39:21;;;;;;;18.10;8.67;;;-2.30;1.00;;;;;;5046924;28;20242;-90
2022/03/11 03:41:48;;;;;;;18.77;8.20;;;-2.30;1.00;;;;;;5056996;28;20566;-91
2022/03/11 03:44:15;;;;;;;18.63;7.90;;;-2.40;1.00;;;;;;5056989;28;20258;-90
2022/03/11 03:46:42;;;;;;;16.57;8.13;;;-2.40;1.00;;;;;;5055146;28;20250;-89
2022/03/11 03:49:09;;;;;;;22.67;9.93;;;-2.40;1.00;;;;;;5036538;28;20251;-90
2022/03/11 03:51:38;;;;;;;25.37;9.23;;;-2.40;1.00;;;;;;5036744;28;20194;-91
2022/03/11 03:54:05;;;;;;;18.80;9.87;;;-2.40;1.00;;;;;;5036760;28;20216;-89
2022/03/11 03:56:32;;;;;;;25.53;9.87;;;-2.50;1.00;;;;;;5036813;28;20259;-89
2022/03/11 03:59:04;;;;;;;19.07;9.00;;;-2.40;1.00;;;;;;5036672;28;20193;-90
2022/03/11 04:01:32;;;;;;;17.03;8.03;;;-2.50;1.00;;;;;;5036638;28;20560;-90
2022/03/11 04:04:00;;;;;;;26.37;9.27;;;-2.50;1.00;;;;;;5036578;28;20347;-91
2022/03/11 04:06:28;;;;;;;16.60;8.93;;;-2.50;1.00;;;;;;5036362;28;20193;-89
2022/03/11 04:08:57;;;;;;;20.17;9.70;;;-2.50;1.00;;;;;;5036336;28;20279;-89
2022/03/11 04:11:24;;;;;;;19.40;8.33;;;-2.50;1.00;;;;;;5036340;28;20614;-88
2022/03/11 04:13:51;;;;;;;19.50;8.97;;;-2.50;1.00;;;;;;5036030;28;20193;-90
2022/03/11 04:16:19;;;;;;;15.03;7.83;;;-2.60;1.00;;;;;;5036629;28;20555;-89
2022/03/11 04:18:46;;;;;;;19.03;8.43;;;-2.60;1.00;;;;;;5035804;28;20277;-89
2022/03/11 04:21:13;;;;;;;22.47;9.43;;;-2.60;1.00;;;;;;5035917;28;20237;-89
2022/03/11 04:23:41;;;;;;;18.47;9.30;;;-2.60;1.00;;;;;;5035899;28;20201;-89
2022/03/11 04:26:09;;;;;;;24.50;9.60;;;-2.60;1.00;;;;;;5035676;28;20265;-88
2022/03/11 04:28:37;;;;;;;17.87;8.10;;;-2.60;1.00;;;;;;5036080;28;20198;-89
2022/03/11 04:31:04;;;;;;;25.23;10.50;;;-2.60;1.00;;;;;;5035431;28;20247;-89
2022/03/11 04:33:31;;;;;;;22.07;10.23;;;-2.70;1.00;;;;;;5035847;28;20205;-89
2022/03/11 04:35:59;;;;;;;17.27;8.40;;;-2.70;1.00;;;;;;5036336;28;20311;-90
2022/03/11 04:38:26;;;;;;;17.45;8.45;;;-2.70;1.00;;;;;;5044216;28;20193;-89
2022/03/11 04:40:53;;;;;;;17.73;7.83;;;-2.70;1.00;;;;;;5035974;28;20544;-88
2022/03/11 04:43:21;;;;;;;22.03;8.97;;;-2.70;1.00;;;;;;5036053;28;20228;-90
2022/03/11 04:45:49;;;;;;;19.07;9.57;;;-2.70;1.00;;;;;;5035723;28;20197;-90
2022/03/11 04:48:16;;;;;;;17.50;7.50;;;-2.80;1.00;;;;;;5035749;28;20205;-90
2022/03/11 04:50:43;;;;;;;21.17;8.93;;;-2.80;1.00;;;;;;5035706;28;20201;-92
2022/03/11 04:53:10;;;;;;;23.90;10.33;;;-2.80;1.00;;;;;;5035755;28;20193;-90
2022/03/11 04:55:38;;;;;;;21.67;10.13;;;-2.80;1.00;;;;;;5035620;28;20240;-90
2022/03/11 04:58:05;;;;;;;22.73;10.23;;;-2.80;1.00;;;;;;5035943;28;20197;-91
2022/03/11 05:00:33;;;;;;;19.73;9.63;;;-2.80;1.00;;;;;;5035631;28;20679;-89
2022/03/11 05:03:01;;;;;;;22.67;9.37;;;-2.80;1.00;;;;;;5035588;28;20641;-90
2022/03/11 05:05:29;;;;;;;23.80;9.03;;;-2.80;1.00;;;;;;5057801;28;20200;-89
2022/03/11 05:07:56;;;;;;;17.10;8.37;;;-2.90;1.00;;;;;;5035796;28;20224;-89
2022/03/11 05:10:23;;;;;;;20.60;9.40;;;-2.90;1.00;;;;;;5036005;28;20201;-88
2022/03/11 05:12:49;;;;;;;19.87;8.63;;;-2.90;1.00;;;;;;5035274;28;20185;-88
2022/03/11 05:15:17;;;;;;;19.67;8.33;;;-2.90;1.00;;;;;;5035733;28;20227;-88
2022/03/11 05:17:45;;;;;;;19.67;9.73;;;-2.90;1.00;;;;;;5035146;28;20623;-88
2022/03/11 05:20:13;;;;;;;24.83;8.27;;;-2.90;1.00;;;;;;5035135;28;20247;-88
2022/03/11 05:22:41;;;;;;;20.60;9.93;;;-2.90;1.00;;;;;;5035497;28;20197;-89
2022/03/11 05:25:15;;;;;;;20.73;8.83;;;-3.00;1.00;;;;;;5035568;28;20191;-87
2022/03/11 05:27:42;;;;;;;30.23;11.30;;;-2.90;1.00;;;;;;5037643;28;20174;-89
2022/03/11 05:30:10;;;;;;;19.47;9.50;;;-2.90;1.00;;;;;;5037808;28;20248;-88
2022/03/11 05:32:42;;;;;;;23.83;9.03;;;-2.90;1.00;;;;;;5038503;28;20197;-88
2022/03/11 05:35:11;;;;;;;16.93;9.13;;;-2.90;1.00;;;;;;5036743;28;20708;-89
2022/03/11 05:37:41;;;;;;;19.33;8.43;;;-2.90;1.00;;;;;;5036090;28;20199;-90
2022/03/11 05:40:10;;;;;;;23.90;10.67;;;-2.90;1.00;;;;;;5038094;28;20243;-87
2022/03/11 05:42:37;;;;;;;22.97;10.13;;;-2.90;1.00;;;;;;5036022;28;20240;-88
2022/03/11 05:45:04;;;;;;;21.53;11.17;;;-2.90;1.00;;;;;;5040089;28;20696;-89
2022/03/11 05:47:31;;;;;;;26.27;11.13;;;-2.90;1.00;;;;;;5041767;28;20192;-90
2022/03/11 05:50:00;;;;;;;21.30;9.73;;;-2.90;1.00;;;;;;5042415;28;20201;-89
2022/03/11 05:52:29;;;;;;;22.30;9.33;;;-2.80;1.00;;;;;;5040326;28;20711;-89
2022/03/11 05:54:59;;;;;;;23.47;10.23;;;-2.80;1.00;;;;;;5042396;28;20197;-92
2022/03/11 05:57:26;;;;;;;19.67;9.83;;;-2.80;1.00;;;;;;5041098;28;20238;-89
2022/03/11 05:59:53;;;;;;;16.70;8.00;;;-2.80;1.00;;;;;;5041597;28;20238;-90
2022/03/11 06:02:21;;;;;;;21.70;9.77;;;-2.70;1.00;;;;;;5040658;28;20278;-89
2022/03/11 06:04:50;;;;;;;18.90;8.00;;;-2.70;1.60;;;;;;5042451;28;20628;-92
2022/03/11 06:07:18;;;;;;;20.98;10.63;;;-2.50;67.70;;;;;;5038662;28;20415;-91
2022/03/11 06:09:47;;;;;;;25.00;10.07;;;-1.70;99.90;;;;;;5040421;28;20198;-91
2022/03/11 06:12:22;;;;;;;24.52;12.05;;;-1.00;75.90;;;;;;5040273;28;20426;-90
2022/03/11 06:14:49;;;;;;;21.00;10.90;;;-0.40;1.00;;;;;;5040193;28;20626;-90
2022/03/11 06:17:16;;;;;;;20.23;8.03;;;0.30;1.00;;;;;;5045724;28;20193;-87
2022/03/11 06:19:45;;;;;;;19.37;9.73;;;0.90;1.00;;;;;;5035545;28;20201;-91
2022/03/11 06:22:12;;;;;;;22.47;10.63;;;1.40;1.00;;;;;;5054788;28;20278;-89
2022/03/11 06:24:40;;;;;;;21.63;10.67;;;1.70;1.00;;;;;;5058825;28;20254;-88
2022/03/11 06:27:08;;;;;;;20.33;9.50;;;2.10;1.00;;;;;;5054203;28;20169;-87
2022/03/11 06:29:35;;;;;;;18.53;10.90;;;2.30;1.00;;;;;;5054315;28;20192;-88
2022/03/11 06:32:02;;;;;;;23.40;10.23;;;2.50;1.00;;;;;;5056011;28;20254;-91
2022/03/11 06:34:29;;;;;;;22.00;9.43;;;2.50;1.00;;;;;;5057863;28;20177;-91
2022/03/11 06:36:56;;;;;;;18.80;8.40;;;2.60;1.00;;;;;;5056294;28;20189;-89
2022/03/11 06:39:23;;;;;;;19.13;10.10;;;2.70;1.00;;;;;;5055808;28;20264;-88
2022/03/11 06:41:50;;;;;;;20.83;9.43;;;2.80;1.00;;;;;;5054934;28;20254;-89
2022/03/11 06:44:19;;;;;;;17.87;10.03;;;2.70;1.00;;;;;;5055175;28;20200;-88
2022/03/11 06:46:46;;;;;;;19.20;9.20;;;2.80;1.00;;;;;;5054475;28;20645;-88
2022/03/11 06:49:13;;;;;;;18.70;8.60;;;2.90;1.00;;;;;;5055395;28;20258;-90
2022/03/11 06:51:41;;;;;;;24.73;10.57;;;2.90;1.00;;;;;;5055890;28;20707;-89
2022/03/11 06:54:12;;;;;;;20.73;9.30;;;2.70;1.00;;;;;;5056593;28;20185;-89
2022/03/11 06:56:40;;;;;;;18.73;9.30;;;2.80;1.00;;;;;;5056924;28;20190;-87
2022/03/11 06:59:07;;;;;;;20.00;9.60;;;3.00;1.00;;;;;;5057189;28;20207;-90
2022/03/11 07:01:44;;;;;;;19.40;9.87;;;3.30;1.00;;;;;;5057201;28;20253;-91
2022/03/11 07:04:23;;;;;;;16.80;9.43;;;3.70;1.00;;;;;;5062665;28;20639;-88
2022/03/11 07:07:02;;;;;;;19.23;9.40;;;4.10;1.00;;;;;;5061436;28;20188;-88
2022/03/11 07:09:42;;;;;;;17.17;7.50;;;4.50;1.00;;;;;;5060054;28;20176;-90
2022/03/11 07:12:10;;;;;;;19.40;9.77;;;5.10;1.00;;;;;;5066117;28;20198;-89
2022/03/11 07:14:41;;;;;;;16.27;8.33;;;5.80;1.00;;;;;;5059812;28;20202;-90
2022/03/11 07:17:13;;;;;;;16.93;8.67;;;6.10;1.00;;;;;;5062481;28;20192;-90
2022/03/11 07:19:40;;;;;;;18.00;9.57;;;6.50;1.00;;;;;;5061912;28;20185;-89
2022/03/11 07:22:07;;;;;;;21.77;10.00;;;6.90;1.00;;;;;;5060889;28;20230;-90
2022/03/11 07:24:45;;;;;;;22.33;9.03;;;7.10;1.00;;;;;;5060922;28;20197;-93
2022/03/11 07:27:12;;;;;;;14.03;7.83;;;7.50;1.00;;;;;;5061708;28;20299;-89
2022/03/11 07:29:39;;;;;;;14.90;7.53;;;7.80;1.00;;;;;;5061337;28;20239;-89
2022/03/11 07:32:15;;;;;;;14.37;8.10;;;7.90;1.00;;;;;;5059803;28;20252;-90
2022/03/11 07:34:52;;;;;;;19.20;9.77;;;8.10;1.00;;;;;;5059678;28;20212;-87
2022/03/11 07:37:21;;;;;;;19.10;9.70;;;8.50;1.00;;;;;;5059147;28;20622;-89
2022/03/11 07:39:48;;;;;;;15.37;9.20;;;8.70;1.00;;;;;;5059414;28;20190;-87
2022/03/11 07:42:15;;;;;;;16.57;9.93;;;8.60;1.00;;;;;;5058898;28;20275;-88
2022/03/11 07:44:42;;;;;;;21.30;9.83;;;8.60;1.00;;;;;;5057681;28;20264;-89
2022/03/11 07:47:09;;;;;;;19.27;10.20;;;8.60;1.00;;;;;;5058993;28;20622;-87
2022/03/11 07:49:36;;;;;;;24.50;9.93;;;8.60;1.00;;;;;;5058571;28;20194;-86
2022/03/11 07:52:06;;;;;;;17.73;9.97;;;9.00;1.00;;;;;;5058380;28;20267;-88
2022/03/11 07:54:33;;;;;;;18.03;10.17;;;9.30;1.00;;;;;;5058575;28;20647;-92
2022/03/11 07:57:00;;;;;;;17.17;9.60;;;9.40;1.00;;;;;;5057370;28;20208;-89
2022/03/11 07:59:31;;;;;;;16.47;10.33;;;9.80;1.00;;;;;;5057085;28;20253;-87
2022/03/11 08:01:59;;;;;;;17.17;9.27;;;10.10;1.00;;;;;;5057368;28;20206;-91
2022/03/11 08:04:26;;;;;;;27.63;9.37;;;10.10;1.00;;;;;;5057542;28;20215;-88
2022/03/11 08:06:56;;;;;;;13.50;8.33;;;10.10;1.00;;;;;;5057191;28;20534;-89
2022/03/11 08:09:24;;;;;;;19.57;10.93;;;10.10;1.00;;;;;;5057321;28;20265;-90
2022/03/11 08:11:54;;;;;;;17.07;8.90;;;10.20;1.00;;;;;;5057897;28;20266;-91
2022/03/11 08:14:21;;;;;;;17.10;8.87;;;10.50;1.00;;;;;;5059557;28;20688;-93
2022/03/11 08:16:51;;;;;;;16.17;8.43;;;10.70;1.00;;;;;;5059940;28;20233;-88
2022/03/11 08:19:19;;;;;;;15.17;8.30;;;10.70;1.00;;;;;;5060163;28;20197;-88
2022/03/11 08:21:59;;;;;;;15.13;8.13;;;10.70;1.00;;;;;;5056440;28;20746;-87
2022/03/11 08:24:27;;;;;;;17.70;8.00;;;10.70;1.00;;;;;;5059166;28;20287;-91
2022/03/11 08:26:54;;;;;;;17.63;8.77;;;10.90;1.00;;;;;;5058996;28;20200;-89
2022/03/11 08:29:24;;;;;;;13.57;7.53;;;10.90;1.00;;;;;;5060202;28;20200;-92
2022/03/11 08:31:51;;;;;;;13.97;8.07;;;10.90;1.00;;;;;;5062825;28;20198;-87
2022/03/11 08:34:18;;;;;;;13.53;7.60;;;10.70;1.00;;;;;;5058433;28;20253;-90
2022/03/11 08:36:45;;;;;;;12.93;8.20;;;10.90;1.00;;;;;;5058778;28;20201;-90
2022/03/11 08:39:12;;;;;;;13.80;7.40;;;11.10;1.00;;;;;;5059786;28;20797;-89
2022/03/11 08:41:41;;;;;;;12.27;6.80;;;10.90;1.00;;;;;;5059799;28;20700;-89
2022/03/11 08:44:08;;;;;;;12.20;6.33;;;10.80;1.00;;;;;;5066617;28;20258;-88
2022/03/11 08:46:37;;;;;;;15.40;10.17;;;10.80;1.00;;;;;;5063904;28;20572;-90
2022/03/11 08:49:06;;;;;;;14.07;7.73;;;10.70;1.00;;;;;;5048605;28;20189;-88
2022/03/11 08:51:34;;;;;;;19.03;8.27;;;10.90;1.00;;;;;;5040823;28;20593;-89
2022/03/11 08:54:01;;;;;;;17.47;8.23;;;11.10;1.00;;;;;;5037572;28;20258;-89
2022/03/11 08:56:28;;;;;;;11.17;5.70;;;11.50;1.00;;;;;;5059044;28;20192;-88
2022/03/11 08:58:56;;;;;;;10.63;6.63;;;11.60;1.00;;;;;;5057349;28;20229;-90
2022/03/11 09:01:23;;;;;;;11.33;6.40;;;11.50;1.00;;;;;;5061823;28;20253;-87
2022/03/11 09:03:50;;;;;;;11.47;6.27;;;11.50;1.00;;;;;;5069117;28;20271;-88
2022/03/11 09:06:18;;;;;;;12.10;6.50;;;11.50;1.00;;;;;;5063268;28;20200;-90
2022/03/11 09:08:45;;;;;;;11.20;6.40;;;11.50;1.00;;;;;;5062987;28;20195;-88
2022/03/11 09:11:12;;;;;;;14.60;5.97;;;11.50;1.00;;;;;;5064125;28;20228;-89
2022/03/11 09:13:39;;;;;;;10.80;6.10;;;11.30;1.00;;;;;;5067599;28;20230;-87
2022/03/11 09:16:08;;;;;;;9.30;5.87;;;11.30;1.00;;;;;;5066405;28;20258;-90
2022/03/11 09:18:35;;;;;;;10.13;5.50;;;11.40;1.00;;;;;;5055712;28;20190;-89
2022/03/11 09:21:02;;;;;;;10.20;5.43;;;11.50;1.00;;;;;;5065262;28;20252;-90
2022/03/11 09:23:29;;;;;;;13.07;5.63;;;11.70;1.00;;;;;;5064822;28;20207;-92
2022/03/11 09:25:56;;;;;;;9.10;5.87;;;11.50;1.00;;;;;;5064793;28;20642;-92
2022/03/11 09:28:24;;;;;;;10.67;5.83;;;11.20;1.00;;;;;;5064505;28;20201;-90
2022/03/11 09:30:51;;;;;;;10.17;5.23;;;10.90;1.00;;;;;;5063653;28;20196;-91
2022/03/11 09:33:19;;;;;;;12.07;5.57;;;10.70;1.00;;;;;;5059157;28;20207;-89
2022/03/11 09:35:46;;;;;;;11.97;5.70;;;10.50;1.00;;;;;;5061160;28;20197;-89
2022/03/11 09:38:13;;;;;;;7.90;5.33;;;10.40;1.00;;;;;;5066458;28;20207;-90
2022/03/11 09:40:43;;;;;;;10.13;5.83;;;10.30;1.00;;;;;;5064121;28;20597;-88
2022/03/11 09:43:11;;;;;;;11.93;5.67;;;10.20;1.00;;;;;;5062445;28;20242;-89
2022/03/11 09:45:38;;;;;;;11.00;6.00;;;10.20;1.00;;;;;;5061255;28;20192;-89
2022/03/11 09:48:25;;;;;;;14.43;6.40;;;10.20;1.00;;;;;;5056610;28;20578;-91
2022/03/11 09:51:00;;;;;;;14.47;5.37;;;10.30;1.00;;;;;;5046249;28;20199;-90
2022/03/11 09:53:28;;;;;;;10.23;5.70;;;10.50;1.00;;;;;;5046309;28;20182;-88
2022/03/11 09:55:55;;;;;;;12.83;5.40;;;10.70;1.00;;;;;;5046276;28;20204;-87
2022/03/11 09:58:29;;;;;;;13.20;5.63;;;10.80;1.00;;;;;;5064699;28;20208;-90
2022/03/11 10:00:56;;;;;;;10.60;5.40;;;10.80;1.00;;;;;;5045951;28;20216;-89
2022/03/11 10:03:26;;;;;;;8.93;4.83;;;10.30;1.00;;;;;;5043053;28;20285;-89
2022/03/11 10:05:55;;;;;;;11.63;5.10;;;9.60;1.00;;;;;;5041818;28;20685;-92
2022/03/11 10:08:32;;;;;;;12.83;5.57;;;9.00;1.00;;;;;;5056926;28;20194;-87
2022/03/11 10:11:17;;;;;;;13.87;5.00;;;8.50;1.00;;;;;;5061069;28;20177;-92
2022/03/11 10:13:46;;;;;;;10.27;5.73;;;8.00;1.00;;;;;;5058365;28;20323;-90
2022/03/11 10:16:20;;;;;;;8.77;4.90;;;7.50;1.00;;;;;;5055150;28;20200;-89
2022/03/11 10:18:59;;;;;;;13.80;6.03;;;7.40;1.00;;;;;;5056617;28;20254;-89
2022/03/11 10:21:34;;;;;;;13.30;5.70;;;7.30;1.00;;;;;;5053627;28;20300;-91
2022/03/11 10:24:06;;;;;;;13.03;5.27;;;7.20;1.00;;;;;;5054970;28;20540;-90
2022/03/11 10:26:39;;;;;;;12.10;4.73;;;7.20;1.00;;;;;;5055310;28;20280;-90
2022/03/11 10:29:08;;;;;;;13.60;4.17;;;7.10;1.00;;;;;;5056530;28;20207;-90
2022/03/11 10:31:37;;;;;;;9.40;4.50;;;7.00;1.00;;;;;;5056335;28;20193;-93
2022/03/11 10:34:23;;;;;;;8.60;4.73;;;6.90;1.00;;;;;;5055295;28;20215;-90
2022/03/11 10:36:55;;;;;;;10.23;4.90;;;6.70;1.00;;;;;;5053758;28;20197;-91
2022/03/11 10:39:25;;;;;;;10.93;4.87;;;6.60;1.00;;;;;;5054113;28;20238;-91
2022/03/11 10:41:53;;;;;;;19.73;5.43;;;6.60;1.00;;;;;;5052937;28;20275;-89
2022/03/11 10:44:23;;;;;;;12.03;5.60;;;6.60;1.00;;;;;;5057369;28;20696;-89
2022/03/11 10:46:51;;;;;;;13.00;7.53;;;6.50;1.00;;;;;;5054024;28;20196;-89
2022/03/11 10:49:27;;;;;;;8.80;4.70;;;6.50;1.00;;;;;;5058667;28;20250;-92
2022/03/11 10:51:58;;;;;;;15.13;5.43;;;6.50;1.00;;;;;;5056057;28;20191;-89
2022/03/11 10:54:30;;;;;;;10.03;3.90;;;6.50;1.00;;;;;;5054635;28;20285;-87
2022/03/11 10:57:09;;;;;;;10.17;4.90;;;6.50;1.00;;;;;;5060937;28;20177;-91
2022/03/11 10:59:36;;;;;;;16.73;4.90;;;6.60;1.00;;;;;;5037448;28;20193;-87
2022/03/11 11:02:04;;;;;;;11.13;5.50;;;6.60;1.00;;;;;;5036755;28;20262;-88
2022/03/11 11:04:33;;;;;;;13.17;5.37;;;6.60;1.00;;;;;;5038425;28;20565;-89
2022/03/11 11:07:00;;;;;;;12.23;5.20;;;6.60;1.00;;;;;;5038151;28;20213;-89
2022/03/11 11:09:28;;;;;;;10.10;5.83;;;6.60;1.00;;;;;;5036731;28;20206;-89
2022/03/11 11:11:55;;;;;;;11.47;5.47;;;6.60;1.00;;;;;;5051935;28;20223;-87
2022/03/11 11:14:24;;;;;;;19.20;6.47;;;6.60;1.00;;;;;;5056456;28;20189;-90
2022/03/11 11:16:56;;;;;;;13.03;4.60;;;6.60;1.00;;;;;;5055351;28;20625;-90
2022/03/11 11:19:25;;;;;;;10.40;5.50;;;6.60;1.00;;;;;;5060502;28;20181;-89
2022/03/11 11:22:05;;;;;;;10.47;5.13;;;6.50;1.00;;;;;;5041241;28;20221;-91
2022/03/11 11:24:37;;;;;;;10.90;5.37;;;6.50;1.00;;;;;;5034000;28;20217;-91
2022/03/11 11:27:05;;;;;;;16.20;6.00;;;6.50;1.00;;;;;;5048932;28;20224;-88
2022/03/11 11:29:36;;;;;;;10.77;5.17;;;6.40;1.00;;;;;;5052556;28;20193;-90
2022/03/11 11:32:07;;;;;;;10.33;5.00;;;6.40;1.00;;;;;;5055414;28;20196;-92
2022/03/11 11:34:37;;;;;;;11.93;4.93;;;6.50;1.00;;;;;;5052310;28;20185;-92
2022/03/11 11:37:08;;;;;;;12.00;5.03;;;6.60;1.00;;;;;;5056859;28;20203;-87
2022/03/11 11:39:40;;;;;;;10.13;4.87;;;6.80;1.00;;;;;;5055843;28;20186;-92
2022/03/11 11:42:09;;;;;;;9.20;5.30;;;6.80;1.00;;;;;;5055911;28;20251;-91
2022/03/11 11:44:37;;;;;;;10.10;4.93;;;6.90;1.00;;;;;;5056182;28;20246;-89
2022/03/11 11:47:15;;;;;;;9.10;5.27;;;7.00;1.00;;;;;;5054609;28;20189;-90
2022/03/11 11:49:44;;;;;;;11.47;5.10;;;7.00;1.00;;;;;;5057187;28;20200;-89
2022/03/11 11:52:27;;;;;;;8.83;4.83;;;7.00;1.00;;;;;;5061379;28;20254;-89
2022/03/11 11:55:13;;;;;;;10.40;4.70;;;6.90;1.00;;;;;;5064192;28;20248;-89
2022/03/11 11:57:41;;;;;;;10.90;5.50;;;6.90;1.00;;;;;;5061593;28;20177;-88
2022/03/11 12:00:41;;;;;;;10.43;5.33;;;6.90;1.00;;;;;;5046116;28;20200;-88
2022/03/11 12:03:19;;;;;;;12.03;5.03;;;6.90;1.00;;;;;;5039313;28;20199;-93
2022/03/11 12:05:47;;;;;;;11.37;6.30;;;6.90;1.00;;;;;;5042138;28;20209;-88
2022/03/11 12:08:48;;;;;;;10.80;5.40;;;7.00;1.00;;;;;;5042884;28;20284;-91
2022/03/11 12:11:40;;;;;;;15.00;5.63;;;7.10;1.00;;;;;;5050108;28;20194;-90
2022/03/11 12:14:07;;;;;;;11.40;4.03;;;7.00;1.00;;;;;;5050804;28;20204;-89
2022/03/11 12:17:06;;;;;;;9.17;5.43;;;7.00;1.00;;;;;;5064058;28;20202;-87
2022/03/11 12:19:38;;;;;;;14.10;5.83;;;7.00;1.00;;;;;;5058366;28;20193;-89
2022/03/11 12:22:29;;;;;;;11.70;5.17;;;6.90;1.00;;;;;;5053164;28;20228;-89
2022/03/11 12:25:02;;;;;;;9.13;5.43;;;6.90;1.00;;;;;;5061375;28;20229;-90
2022/03/11 12:28:01;;;;;;;10.07;5.10;;;6.90;1.00;;;;;;5058802;28;20189;-88
2022/03/11 12:30:29;;;;;;;15.70;6.87;;;6.90;1.00;;;;;;5057830;28;20189;-89
2022/03/11 12:32:59;;;;;;;10.97;5.07;;;7.00;1.00;;;;;;5056256;28;20255;-89
2022/03/11 12:35:26;;;;;;;18.17;7.50;;;7.00;1.00;;;;;;5056796;28;20267;-89
2022/03/11 12:37:54;;;;;;;10.57;5.00;;;7.00;1.00;;;;;;5058497;28;20196;-87
2022/03/11 12:40:26;;;;;;;15.47;6.00;;;7.00;1.00;;;;;;5052797;28;20280;-88
2022/03/11 12:43:02;;;;;;;11.03;4.70;;;6.90;1.00;;;;;;5035638;28;20214;-84
2022/03/11 12:45:40;;;;;;;8.77;4.80;;;6.90;1.00;;;;;;5034459;28;20608;-89
2022/03/11 12:48:09;;;;;;;10.27;5.20;;;6.90;1.00;;;;;;5036013;28;20185;-88
2022/03/11 12:50:37;;;;;;;12.07;5.50;;;6.90;1.00;;;;;;5034787;28;20201;-89
2022/03/11 12:53:06;;;;;;;16.20;7.13;;;6.80;1.00;;;;;;5035428;28;20195;-91
2022/03/11 12:55:36;;;;;;;14.50;6.53;;;6.90;1.00;;;;;;5036374;28;20247;-89
2022/03/11 12:58:06;;;;;;;14.40;5.40;;;7.10;1.00;;;;;;5036678;28;20236;-88
2022/03/11 13:00:34;;;;;;;8.70;5.15;;;7.10;1.00;;;;;;5038037;28;20190;-87